createdAt,value
2022-09-07T00:00:18.960Z,9.63
2022-09-07T00:01:50.710Z,10.17
2022-09-07T00:03:23.540Z,8.90
2022-09-07T00:04:55.351Z,8.67
2022-09-07T00:06:27.147Z,8.97
2022-09-07T00:07:59.668Z,7.83
2022-09-07T00:09:34.435Z,6.87
2022-09-07T00:11:11.402Z,3.87
2022-09-07T00:12:43.514Z,4.90
2022-09-07T00:14:15.271Z,8.23
2022-09-07T00:15:47.181Z,5.33
2022-09-07T00:17:18.999Z,5.20
2022-09-07T00:18:53.122Z,8.43
2022-09-07T00:20:25.110Z,6.90
2022-09-07T00:21:56.810Z,5.10
2022-09-07T00:23:30.546Z,5.50
2022-09-07T00:25:04.056Z,5.10
2022-09-07T00:26:35.864Z,6.00
2022-09-07T00:28:08.763Z,4.83
2022-09-07T00:29:40.766Z,5.87
2022-09-07T00:31:21.020Z,3.57
2022-09-07T00:32:52.811Z,4.97
2022-09-07T00:34:24.520Z,4.33
2022-09-07T00:35:58.186Z,6.40
2022-09-07T00:37:29.968Z,5.17
2022-09-07T00:39:02.575Z,4.97
2022-09-07T00:40:34.622Z,10.80
2022-09-07T00:42:07.452Z,5.50
2022-09-07T00:43:44.942Z,8.23
2022-09-07T00:45:21.031Z,5.30
2022-09-07T00:46:52.770Z,4.63
2022-09-07T00:48:32.554Z,6.80
2022-09-07T00:50:18.850Z,3.10
2022-09-07T00:51:58.651Z,5.30
2022-09-07T00:53:38.087Z,7.47
2022-09-07T00:55:13.326Z,8.37
2022-09-07T00:56:48.452Z,6.00
2022-09-07T00:58:22.994Z,6.03
2022-09-07T00:59:57.570Z,4.00
2022-09-07T01:01:29.700Z,3.67
2022-09-07T01:03:03.668Z,4.83
2022-09-07T01:04:36.827Z,2.43
2022-09-07T01:06:21.679Z,6.40
2022-09-07T01:07:56.727Z,7.93
2022-09-07T01:09:30.158Z,4.30
2022-09-07T01:11:02.209Z,6.03
2022-09-07T01:12:34.710Z,6.03
2022-09-07T01:14:09.963Z,3.77
2022-09-07T01:15:56.306Z,13.90
2022-09-07T01:17:51.724Z,6.57
2022-09-07T01:19:43.871Z,7.03
2022-09-07T01:21:21.471Z,6.93
2022-09-07T01:23:15.128Z,6.17
2022-09-07T01:25:02.159Z,5.87
2022-09-07T01:27:11.319Z,3.80
2022-09-07T01:28:43.575Z,3.63
2022-09-07T01:30:20.744Z,6.30
2022-09-07T01:32:05.403Z,3.53
2022-09-07T01:33:49.119Z,3.10
2022-09-07T01:35:23.999Z,3.80
2022-09-07T01:37:14.879Z,3.83
2022-09-07T01:38:54.927Z,5.30
2022-09-07T01:40:33.227Z,5.10
2022-09-07T01:42:12.236Z,4.53
2022-09-07T01:43:56.144Z,8.50
2022-09-07T01:45:32.933Z,4.37
2022-09-07T01:47:32.523Z,7.50
2022-09-07T01:49:17.879Z,8.57
2022-09-07T01:51:03.424Z,4.07
2022-09-07T01:52:50.796Z,5.00
2022-09-07T01:54:30.327Z,3.97
2022-09-07T01:56:10.834Z,5.10
2022-09-07T01:57:48.369Z,6.80
2022-09-07T01:59:40.162Z,6.10
2022-09-07T02:01:28.941Z,6.20
2022-09-07T02:03:33.963Z,6.50
2022-09-07T02:05:19.038Z,7.87
2022-09-07T02:07:17.617Z,6.33
2022-09-07T02:09:30.523Z,4.47
2022-09-07T02:11:11.394Z,25.87
2022-09-07T02:13:01.895Z,4.97
2022-09-07T02:14:40.987Z,7.20
2022-09-07T02:16:29.632Z,4.47
2022-09-07T02:18:07.320Z,4.40
2022-09-07T02:19:46.907Z,7.20
2022-09-07T02:21:26.563Z,5.17
2022-09-07T02:23:02.448Z,7.10
2022-09-07T02:24:39.607Z,8.13
2022-09-07T02:26:17.307Z,5.67
2022-09-07T02:28:02.923Z,4.00
2022-09-07T02:29:35.403Z,9.83
2022-09-07T02:31:08.217Z,5.50
2022-09-07T02:32:40.185Z,5.50
2022-09-07T02:34:12.062Z,5.70
2022-09-07T02:35:43.855Z,8.03
2022-09-07T02:37:17.687Z,5.80
2022-09-07T02:38:49.659Z,2.80
2022-09-07T02:40:21.425Z,4.77
2022-09-07T02:41:53.304Z,4.73
2022-09-07T02:43:26.363Z,4.80
2022-09-07T02:44:58.833Z,4.17
2022-09-07T02:46:43.304Z,3.80
2022-09-07T02:48:35.267Z,2.80
2022-09-07T02:50:25.208Z,3.63
2022-09-07T02:52:21.161Z,6.27
2022-09-07T02:54:31.208Z,5.30
2022-09-07T02:56:24.199Z,4.30
2022-09-07T02:58:15.878Z,4.40
2022-09-07T03:00:02.583Z,6.70
2022-09-07T03:02:14.612Z,6.87
2022-09-07T03:04:08.104Z,5.97
2022-09-07T03:05:47.312Z,6.60
2022-09-07T03:07:35.773Z,4.83
2022-09-07T03:09:12.595Z,4.83
2022-09-07T03:10:44.919Z,6.30
2022-09-07T03:12:17.182Z,4.53
2022-09-07T03:13:49.186Z,9.00
2022-09-07T03:15:24.626Z,5.20
2022-09-07T03:16:57.137Z,5.67
2022-09-07T03:18:29.044Z,2.50
2022-09-07T03:20:02.878Z,5.30
2022-09-07T03:21:35.710Z,4.30
2022-09-07T03:23:07.445Z,7.80
2022-09-07T03:24:39.246Z,4.90
2022-09-07T03:26:24.050Z,7.70
2022-09-07T03:27:55.802Z,4.17
2022-09-07T03:29:27.669Z,4.47
2022-09-07T03:31:02.023Z,3.60
2022-09-07T03:32:35.852Z,5.60
2022-09-07T03:34:07.995Z,3.43
2022-09-07T03:35:39.738Z,5.60
2022-09-07T03:37:11.475Z,4.60
2022-09-07T03:38:43.297Z,5.53
2022-09-07T03:40:16.511Z,5.37
2022-09-07T03:41:48.663Z,4.67
2022-09-07T03:43:20.364Z,6.17
2022-09-07T03:44:52.179Z,3.30
2022-09-07T03:46:23.982Z,2.50
2022-09-07T03:47:55.782Z,6.00
2022-09-07T03:49:27.507Z,4.23
2022-09-07T03:51:06.969Z,4.37
2022-09-07T03:52:38.796Z,2.90
2022-09-07T03:54:10.624Z,3.43
2022-09-07T03:55:42.333Z,3.57
2022-09-07T03:57:14.178Z,6.17
2022-09-07T03:58:47.365Z,5.13
2022-09-07T04:00:19.172Z,6.30
2022-09-07T04:01:51.004Z,7.27
2022-09-07T04:03:22.959Z,5.53
2022-09-07T04:04:54.701Z,5.00
2022-09-07T04:06:26.542Z,6.40
2022-09-07T04:07:58.370Z,4.17
2022-09-07T04:09:30.368Z,8.07
2022-09-07T04:11:03.753Z,2.93
2022-09-07T04:12:35.477Z,4.90
2022-09-07T04:14:08.389Z,3.47
2022-09-07T04:15:40.200Z,3.53
2022-09-07T04:17:12.019Z,3.60
2022-09-07T04:18:44.317Z,5.57
2022-09-07T04:20:16.140Z,4.13
2022-09-07T04:21:48.135Z,3.53
2022-09-07T04:23:20.191Z,3.10
2022-09-07T04:24:51.935Z,4.53
2022-09-07T04:26:43.512Z,13.23
2022-09-07T04:28:16.545Z,3.63
2022-09-07T04:29:48.300Z,5.73
2022-09-07T04:31:21.135Z,3.90
2022-09-07T04:32:52.904Z,4.60
2022-09-07T04:34:24.684Z,6.23
2022-09-07T04:35:56.395Z,2.70
2022-09-07T04:37:28.552Z,3.77
2022-09-07T04:39:02.335Z,12.20
2022-09-07T04:40:34.441Z,5.23
2022-09-07T04:42:06.337Z,7.67
2022-09-07T04:43:39.381Z,2.77
2022-09-07T04:45:11.551Z,7.27
2022-09-07T04:46:43.336Z,2.80
2022-09-07T04:48:15.075Z,6.23
2022-09-07T04:49:50.571Z,4.10
2022-09-07T04:51:25.804Z,4.90
2022-09-07T04:52:57.796Z,7.00
2022-09-07T04:54:29.498Z,5.13
2022-09-07T04:56:01.489Z,3.07
2022-09-07T04:57:33.237Z,4.30
2022-09-07T04:59:05.180Z,4.90
2022-09-07T05:00:39.069Z,5.00
2022-09-07T05:02:10.866Z,3.57
2022-09-07T05:03:43.576Z,4.27
2022-09-07T05:05:15.517Z,4.10
2022-09-07T05:06:47.244Z,4.07
2022-09-07T05:08:21.971Z,7.50
2022-09-07T05:09:53.811Z,6.73
2022-09-07T05:11:29.172Z,6.57
2022-09-07T05:13:02.643Z,4.10
2022-09-07T05:14:35.681Z,3.80
2022-09-07T05:16:13.339Z,3.57
2022-09-07T05:17:45.184Z,9.47
2022-09-07T05:19:17.010Z,5.90
2022-09-07T05:20:48.750Z,9.00
2022-09-07T05:22:20.497Z,4.27
2022-09-07T05:23:53.981Z,10.40
2022-09-07T05:25:30.702Z,6.77
2022-09-07T05:27:03.806Z,5.13
2022-09-07T05:28:36.378Z,5.80
2022-09-07T05:30:09.050Z,6.30
2022-09-07T05:31:40.824Z,3.03
2022-09-07T05:33:12.649Z,7.50
2022-09-07T05:34:44.398Z,7.10
2022-09-07T05:36:16.405Z,7.27
2022-09-07T05:37:51.193Z,8.40
2022-09-07T05:39:23.182Z,5.90
2022-09-07T05:40:54.938Z,3.50
2022-09-07T05:42:26.800Z,4.30
2022-09-07T05:45:53.804Z,11.93
2022-09-07T05:47:26.191Z,6.93
2022-09-07T05:48:57.910Z,8.70
2022-09-07T05:50:29.634Z,12.13
2022-09-07T05:52:01.365Z,7.93
2022-09-07T05:53:38.206Z,7.13
2022-09-07T05:55:28.664Z,6.33
2022-09-07T05:57:02.946Z,9.73
2022-09-07T05:58:35.989Z,5.93
2022-09-07T06:00:08.371Z,6.00
2022-09-07T06:01:44.059Z,6.30
2022-09-07T06:03:15.909Z,10.00
2022-09-07T06:04:47.742Z,8.57
2022-09-07T06:06:19.525Z,8.30
2022-09-07T06:07:51.450Z,5.73
2022-09-07T06:09:26.237Z,6.67
2022-09-07T06:11:09.405Z,7.70
2022-09-07T06:12:48.996Z,7.67
2022-09-07T06:14:21.277Z,3.70
2022-09-07T06:15:52.999Z,7.67
2022-09-07T06:17:24.776Z,6.60
2022-09-07T06:18:56.526Z,12.20
2022-09-07T06:20:28.306Z,5.70
2022-09-07T06:22:00.060Z,6.60
2022-09-07T06:23:33.022Z,6.70
2022-09-07T06:25:05.204Z,17.83
2022-09-07T06:26:36.927Z,3.40
2022-09-07T06:28:08.629Z,5.83
2022-09-07T06:29:40.632Z,3.70
2022-09-07T06:31:17.569Z,6.00
2022-09-07T06:32:49.472Z,8.10
2022-09-07T06:34:22.768Z,6.10
2022-09-07T06:36:00.323Z,6.23
2022-09-07T06:37:34.160Z,7.37
2022-09-07T06:39:05.929Z,8.47
2022-09-07T06:40:37.726Z,6.17
2022-09-07T06:42:09.458Z,6.57
2022-09-07T06:43:48.240Z,8.30
2022-09-07T06:45:19.956Z,8.10
2022-09-07T06:47:06.957Z,7.40
2022-09-07T06:48:43.825Z,5.23
2022-09-07T06:50:17.543Z,3.77
2022-09-07T06:51:49.939Z,4.63
2022-09-07T06:53:39.314Z,5.13
2022-09-07T06:55:13.441Z,4.30
2022-09-07T06:56:45.569Z,6.13
2022-09-07T06:58:17.387Z,4.83
2022-09-07T06:59:49.180Z,5.70
2022-09-07T07:01:21.540Z,4.53
2022-09-07T07:02:53.494Z,5.50
2022-09-07T07:04:25.259Z,6.70
2022-09-07T07:05:57.432Z,7.87
2022-09-07T07:07:29.484Z,8.90
2022-09-07T07:09:01.629Z,8.63
2022-09-07T07:10:38.496Z,7.97
2022-09-07T07:12:10.872Z,5.70
2022-09-07T07:13:44.418Z,6.73
2022-09-07T07:15:16.531Z,7.27
2022-09-07T07:16:48.709Z,8.70
2022-09-07T07:18:21.479Z,9.50
2022-09-07T07:19:53.561Z,9.53
2022-09-07T07:21:38.370Z,9.00
2022-09-07T07:23:19.750Z,7.17
2022-09-07T07:24:51.526Z,10.73
2022-09-07T07:26:27.487Z,8.10
2022-09-07T07:29:52.371Z,7.10
2022-09-07T07:31:26.232Z,8.63
2022-09-07T07:32:58.743Z,10.80
2022-09-07T07:34:30.500Z,9.67
2022-09-07T07:36:26.705Z,10.10
2022-09-07T07:42:02.995Z,8.70
2022-09-07T07:43:35.694Z,7.20
2022-09-07T07:47:00.477Z,10.03
2022-09-07T07:48:33.864Z,7.90
2022-09-07T07:53:50.654Z,12.87
2022-09-07T07:57:14.170Z,12.17
2022-09-07T07:58:47.303Z,8.70
2022-09-07T08:00:32.003Z,10.67
2022-09-07T08:02:17.653Z,11.07
2022-09-07T08:03:49.619Z,13.07
2022-09-07T08:05:21.283Z,10.40
2022-09-07T08:06:53.097Z,11.90
2022-09-07T08:08:24.915Z,11.17
2022-09-07T08:09:56.621Z,11.33
2022-09-07T08:11:30.250Z,8.97
2022-09-07T08:13:01.938Z,9.30
2022-09-07T08:14:36.426Z,9.20
2022-09-07T08:16:09.665Z,10.90
2022-09-07T08:17:41.384Z,9.53
2022-09-07T08:19:13.171Z,12.60
2022-09-07T08:20:45.069Z,9.57
2022-09-07T08:22:16.717Z,15.20
2022-09-07T08:23:48.384Z,8.93
2022-09-07T08:25:20.030Z,12.80
2022-09-07T08:26:52.851Z,12.20
2022-09-07T08:28:26.424Z,8.67
2022-09-07T08:29:58.060Z,10.77
2022-09-07T08:31:29.803Z,10.47
2022-09-07T08:33:01.546Z,10.00
2022-09-07T08:34:36.120Z,9.63
2022-09-07T08:36:13.287Z,14.10
2022-09-07T08:37:44.922Z,9.90
2022-09-07T08:39:16.650Z,10.77
2022-09-07T08:40:48.697Z,9.93
2022-09-07T08:43:03.253Z,9.37
2022-09-07T08:44:41.503Z,10.00
2022-09-07T08:46:27.870Z,14.07
2022-09-07T08:47:59.707Z,9.07
2022-09-07T08:49:46.341Z,9.30
2022-09-07T08:51:24.561Z,11.60
2022-09-07T08:53:06.850Z,9.93
2022-09-07T08:54:43.100Z,11.40
2022-09-07T08:56:37.653Z,9.57
2022-09-07T08:58:47.864Z,14.33
2022-09-07T09:00:17.422Z,9.63
2022-09-07T09:06:18.644Z,13.23
2022-09-07T09:08:05.510Z,14.33
2022-09-07T09:09:49.891Z,10.40
2022-09-07T09:11:27.431Z,12.60
2022-09-07T09:13:19.164Z,12.60
2022-09-07T09:15:18.131Z,11.23
2022-09-07T09:16:58.884Z,16.43
2022-09-07T09:18:33.389Z,13.27
2022-09-07T09:20:33.576Z,10.80
2022-09-07T09:22:19.213Z,12.77
2022-09-07T09:23:53.432Z,12.00
2022-09-07T09:25:36.553Z,12.20
2022-09-07T09:27:09.813Z,12.70
2022-09-07T09:28:41.767Z,15.60
2022-09-07T09:30:20.776Z,12.07
2022-09-07T09:31:53.471Z,10.53
2022-09-07T09:33:27.617Z,9.10
2022-09-07T09:35:23.917Z,9.10
2022-09-07T09:36:56.696Z,11.50
2022-09-07T09:38:34.834Z,9.93
2022-09-07T09:40:17.371Z,21.73
2022-09-07T09:41:49.891Z,10.77
2022-09-07T09:43:25.142Z,9.50
2022-09-07T09:45:04.007Z,12.77
2022-09-07T09:46:37.651Z,13.43
2022-09-07T09:48:11.315Z,14.50
2022-09-07T09:49:45.265Z,12.33
2022-09-07T09:53:25.033Z,17.73
2022-09-07T09:55:03.301Z,24.33
2022-09-07T09:56:45.970Z,20.63
2022-09-07T10:00:33.792Z,17.83
2022-09-07T10:04:40.930Z,17.60
2022-09-07T10:06:16.935Z,18.67
2022-09-07T10:07:53.306Z,17.40
2022-09-07T10:09:33.596Z,11.53
2022-09-07T10:11:13.494Z,10.43
2022-09-07T10:12:46.596Z,17.87
2022-09-07T10:14:23.919Z,15.73
2022-09-07T10:15:58.127Z,23.63
2022-09-07T10:17:31.596Z,14.37
2022-09-07T10:19:03.296Z,14.00
2022-09-07T10:20:39.840Z,19.53
2022-09-07T10:22:37.156Z,18.90
2022-09-07T10:24:08.757Z,12.97
2022-09-07T10:25:44.272Z,14.53
2022-09-07T10:27:36.604Z,16.47
2022-09-07T10:29:31.204Z,14.53
2022-09-07T10:31:24.893Z,14.00
2022-09-07T10:33:14.236Z,14.83
2022-09-07T10:35:00.849Z,15.20
2022-09-07T10:37:01.594Z,17.77
2022-09-07T10:38:42.604Z,19.20
2022-09-07T10:40:29.670Z,17.70
2022-09-07T10:42:28.915Z,17.50
2022-09-07T10:44:03.719Z,17.50
2022-09-07T10:46:09.760Z,17.57
2022-09-07T10:47:52.850Z,13.37
2022-09-07T10:49:27.814Z,14.43
2022-09-07T10:51:13.383Z,13.67
2022-09-07T10:53:23.466Z,15.83
2022-09-07T10:55:23.624Z,15.93
2022-09-07T10:57:20.212Z,14.60
2022-09-07T10:59:19.440Z,10.73
2022-09-07T11:01:10.319Z,11.20
2022-09-07T11:05:22.023Z,12.83
2022-09-07T11:07:12.397Z,14.43
2022-09-07T11:09:22.780Z,12.50
2022-09-07T11:11:15.563Z,12.17
2022-09-07T11:12:50.896Z,14.67
2022-09-07T11:14:25.274Z,11.23
2022-09-07T11:16:07.346Z,8.70
2022-09-07T11:18:23.576Z,10.00
2022-09-07T11:20:25.518Z,14.10
2022-09-07T11:22:14.549Z,13.33
2022-09-07T11:24:01.350Z,11.90
2022-09-07T11:25:43.936Z,15.13
2022-09-07T11:27:56.709Z,17.27
2022-09-07T11:29:48.526Z,12.30
2022-09-07T11:31:45.629Z,10.00
2022-09-07T11:34:23.817Z,7.83
2022-09-07T11:35:52.392Z,8.63
2022-09-07T11:37:36.324Z,6.07
2022-09-07T11:39:17.000Z,6.60
2022-09-07T11:41:06.922Z,7.43
2022-09-07T11:42:49.101Z,11.50
2022-09-07T11:44:39.543Z,11.13
2022-09-07T11:46:41.076Z,11.47
2022-09-07T11:48:23.630Z,6.10
2022-09-07T11:49:59.177Z,8.93
2022-09-07T11:52:05.564Z,10.97
2022-09-07T11:53:43.959Z,8.90
2022-09-07T11:55:25.267Z,8.23
2022-09-07T11:57:23.649Z,15.27
2022-09-07T11:59:10.011Z,9.33
2022-09-07T12:01:06.737Z,5.27
2022-09-07T12:03:09.390Z,5.80
2022-09-07T12:05:07.126Z,6.60
2022-09-07T12:06:58.653Z,5.60
2022-09-07T12:08:54.836Z,5.80
2022-09-07T12:10:49.564Z,7.33
2022-09-07T12:12:30.069Z,5.20
2022-09-07T12:14:21.183Z,9.40
2022-09-07T12:16:05.785Z,5.90
2022-09-07T12:18:04.403Z,6.97
2022-09-07T12:19:36.235Z,7.90
2022-09-07T12:21:46.720Z,14.80
2022-09-07T12:23:29.118Z,19.83
2022-09-07T12:25:08.882Z,4.43
2022-09-07T12:26:40.455Z,3.33
2022-09-07T12:28:37.868Z,4.20
2022-09-07T12:30:12.239Z,7.03
2022-09-07T12:33:41.117Z,5.63
2022-09-07T12:35:33.531Z,4.60
2022-09-07T12:37:36.640Z,6.27
2022-09-07T12:39:29.614Z,2.40
2022-09-07T12:41:22.087Z,4.20
2022-09-07T12:43:12.795Z,3.70
2022-09-07T12:44:44.410Z,2.90
2022-09-07T12:46:39.756Z,8.73
2022-09-07T12:48:17.582Z,5.53
2022-09-07T12:50:11.565Z,4.10
2022-09-07T12:52:00.987Z,5.40
2022-09-07T12:53:58.250Z,3.83
2022-09-07T12:57:48.909Z,3.40
2022-09-07T12:59:47.807Z,5.47
2022-09-07T13:01:28.622Z,3.10
2022-09-07T13:03:49.430Z,4.13
2022-09-07T13:05:15.866Z,5.83
2022-09-07T13:07:08.192Z,7.10
2022-09-07T13:08:59.629Z,4.80
2022-09-07T13:10:36.749Z,5.13
2022-09-07T13:14:25.493Z,7.00
2022-09-07T13:16:06.053Z,4.77
2022-09-07T13:17:43.409Z,10.90
2022-09-07T13:19:40.300Z,5.17
2022-09-07T13:21:12.866Z,8.57
2022-09-07T13:22:44.473Z,5.43
2022-09-07T13:26:52.496Z,4.20
2022-09-07T13:28:54.807Z,4.10
2022-09-07T13:31:22.375Z,3.50
2022-09-07T13:33:29.143Z,5.17
2022-09-07T13:35:06.270Z,4.83
2022-09-07T13:36:39.306Z,7.50
2022-09-07T13:38:13.912Z,4.83
2022-09-07T13:39:47.842Z,2.17
2022-09-07T13:41:26.581Z,3.80
2022-09-07T13:42:59.277Z,6.60
2022-09-07T13:44:33.463Z,7.17
2022-09-07T13:46:34.385Z,5.20
2022-09-07T13:48:44.471Z,10.43
2022-09-07T13:50:57.566Z,6.67
2022-09-07T13:52:42.188Z,6.97
2022-09-07T13:54:54.699Z,2.77
2022-09-07T13:56:59.387Z,12.20
2022-09-07T13:58:40.984Z,7.03
2022-09-07T14:00:14.409Z,5.67
2022-09-07T14:01:47.882Z,5.77
2022-09-07T14:03:21.145Z,3.93
2022-09-07T14:04:56.233Z,5.43
2022-09-07T14:06:31.287Z,4.47
2022-09-07T14:08:03.318Z,6.80
2022-09-07T14:09:35.064Z,3.53
2022-09-07T14:11:19.800Z,4.40
2022-09-07T14:12:55.203Z,5.33
2022-09-07T14:14:33.063Z,3.53
2022-09-07T14:16:04.833Z,5.37
2022-09-07T14:17:36.802Z,6.70
2022-09-07T14:19:26.562Z,2.80
2022-09-07T14:20:58.672Z,5.87
2022-09-07T14:22:35.242Z,3.90
2022-09-07T14:24:21.748Z,9.90
2022-09-07T14:26:17.199Z,5.53
2022-09-07T14:27:49.992Z,6.90
2022-09-07T14:29:30.235Z,2.20
2022-09-07T14:31:02.359Z,4.90
2022-09-07T14:32:34.116Z,4.67
2022-09-07T14:34:06.745Z,8.40
2022-09-07T14:35:40.345Z,4.60
2022-09-07T14:37:18.001Z,3.83
2022-09-07T14:39:05.865Z,6.57
2022-09-07T14:40:37.845Z,4.00
2022-09-07T14:42:16.378Z,1.83
2022-09-07T14:43:54.073Z,4.10
2022-09-07T14:45:26.316Z,6.70
2022-09-07T14:47:01.482Z,3.87
2022-09-07T14:48:35.365Z,3.03
2022-09-07T14:50:20.543Z,6.43
2022-09-07T14:51:54.402Z,1.70
2022-09-07T14:53:34.441Z,8.13
2022-09-07T14:55:22.944Z,3.50
2022-09-07T14:57:30.328Z,12.23
2022-09-07T14:59:02.288Z,2.23
2022-09-07T15:00:34.403Z,7.73
2022-09-07T15:02:32.548Z,2.83
2022-09-07T15:04:17.937Z,5.93
2022-09-07T15:05:50.086Z,5.60
2022-09-07T15:07:29.077Z,6.20
2022-09-07T15:09:00.966Z,3.60
2022-09-07T15:10:37.166Z,6.10
2022-09-07T15:12:15.396Z,3.23
2022-09-07T15:13:57.234Z,2.90
2022-09-07T15:15:34.938Z,9.87
2022-09-07T15:19:02.400Z,3.23
2022-09-07T15:20:41.104Z,4.97
2022-09-07T15:22:13.673Z,5.17
2022-09-07T15:23:49.633Z,3.50
2022-09-07T15:25:21.436Z,3.60
2022-09-07T15:27:08.759Z,5.07
2022-09-07T15:30:33.561Z,5.07
2022-09-07T15:32:09.826Z,4.90
2022-09-07T15:33:41.571Z,8.77
2022-09-07T15:35:13.383Z,7.17
2022-09-07T15:36:52.934Z,2.97
2022-09-07T15:40:21.200Z,4.50
2022-09-07T15:41:53.417Z,4.63
2022-09-07T15:43:26.770Z,5.43
2022-09-07T15:45:01.918Z,3.77
2022-09-07T15:46:33.954Z,4.47
2022-09-07T15:48:06.428Z,4.53
2022-09-07T15:49:40.084Z,9.10
2022-09-07T15:53:06.090Z,4.07
2022-09-07T15:54:39.876Z,4.03
2022-09-07T15:56:11.974Z,7.13
2022-09-07T15:57:59.284Z,2.23
2022-09-07T15:59:35.316Z,4.97
2022-09-07T16:03:07.181Z,4.20
2022-09-07T16:04:39.882Z,2.70
2022-09-07T16:06:13.781Z,4.50
2022-09-07T16:09:39.041Z,4.83
2022-09-07T16:11:24.027Z,3.90
2022-09-07T16:13:11.900Z,3.50
2022-09-07T16:14:47.790Z,3.87
2022-09-07T16:16:19.628Z,4.53
2022-09-07T16:17:53.894Z,3.67
2022-09-07T16:19:25.740Z,6.27
2022-09-07T16:20:57.406Z,5.53
2022-09-07T16:24:20.810Z,4.33
2022-09-07T16:25:57.777Z,11.87
2022-09-07T16:27:32.357Z,3.60
2022-09-07T16:29:05.433Z,3.47
2022-09-07T16:30:40.872Z,7.33
2022-09-07T16:34:05.485Z,5.17
2022-09-07T16:35:37.157Z,5.90
2022-09-07T16:37:09.969Z,4.37
2022-09-07T16:38:45.877Z,3.43
2022-09-07T16:40:18.358Z,4.50
2022-09-07T16:41:50.398Z,4.10
2022-09-07T16:43:22.053Z,4.30
2022-09-07T16:44:53.908Z,3.10
2022-09-07T16:46:28.314Z,7.40
2022-09-07T16:47:59.933Z,6.43
2022-09-07T16:49:31.680Z,5.20
2022-09-07T16:51:04.896Z,5.13
2022-09-07T16:52:36.570Z,5.40
2022-09-07T16:54:11.931Z,5.47
2022-09-07T16:55:43.625Z,9.77
2022-09-07T16:57:15.588Z,3.43
2022-09-07T16:58:56.653Z,3.57
2022-09-07T17:00:32.367Z,3.50
2022-09-07T17:02:05.521Z,4.33
2022-09-07T17:03:38.621Z,6.93
2022-09-07T17:05:10.438Z,2.77
2022-09-07T17:06:42.310Z,5.23
2022-09-07T17:08:17.030Z,2.33
2022-09-07T17:09:49.446Z,4.67
2022-09-07T17:11:24.064Z,4.77
2022-09-07T17:12:55.708Z,4.03
2022-09-07T17:14:28.625Z,7.80
2022-09-07T17:16:16.040Z,6.30
2022-09-07T17:17:48.803Z,4.20
2022-09-07T17:19:29.420Z,7.50
2022-09-07T17:21:03.327Z,5.50
2022-09-07T17:22:34.932Z,16.60
2022-09-07T17:24:08.504Z,7.20
2022-09-07T17:25:40.212Z,3.93
2022-09-07T17:27:13.341Z,4.00
2022-09-07T17:28:48.587Z,3.73
2022-09-07T17:30:20.816Z,5.53
2022-09-07T17:33:44.403Z,3.77
2022-09-07T17:35:16.140Z,3.20
2022-09-07T17:36:48.019Z,5.93
2022-09-07T17:40:11.473Z,6.07
2022-09-07T17:41:43.730Z,2.60
2022-09-07T17:45:07.855Z,6.13
2022-09-07T17:46:39.726Z,3.90
2022-09-07T17:48:11.455Z,5.37
2022-09-07T17:49:43.255Z,6.40
2022-09-07T17:51:15.778Z,2.17
2022-09-07T17:52:53.012Z,6.57
2022-09-07T17:54:25.736Z,3.80
2022-09-07T17:55:57.402Z,5.27
2022-09-07T17:57:29.262Z,3.30
2022-09-07T18:00:54.190Z,6.40
2022-09-07T18:02:26.016Z,7.67
2022-09-07T18:03:58.195Z,4.50
2022-09-07T18:05:29.878Z,3.43
2022-09-07T18:07:01.549Z,7.93
2022-09-07T18:08:33.290Z,2.23
2022-09-07T18:10:05.417Z,5.83
2022-09-07T18:11:45.863Z,6.20
2022-09-07T18:13:25.543Z,4.93
2022-09-07T18:15:02.662Z,3.30
2022-09-07T18:16:35.598Z,5.77
2022-09-07T18:18:09.480Z,6.10
2022-09-07T18:19:41.276Z,5.67
2022-09-07T18:21:16.474Z,3.63
2022-09-07T18:22:48.139Z,3.77
2022-09-07T18:24:23.126Z,3.13
2022-09-07T18:25:58.621Z,4.80
2022-09-07T18:27:31.023Z,3.23
2022-09-07T18:29:04.069Z,4.03
2022-09-07T18:30:42.103Z,2.53
2022-09-07T18:32:13.801Z,5.53
2022-09-07T18:33:45.732Z,5.60
2022-09-07T18:35:17.453Z,5.07
2022-09-07T18:36:49.188Z,4.80
2022-09-07T18:38:20.828Z,6.53
2022-09-07T18:39:52.521Z,4.73
2022-09-07T18:41:24.847Z,8.10
2022-09-07T18:42:57.380Z,4.37
2022-09-07T18:46:25.321Z,3.43
2022-09-07T18:47:57.277Z,2.53
2022-09-07T18:49:31.607Z,3.70
2022-09-07T18:51:03.678Z,4.70
2022-09-07T18:54:27.512Z,4.83
2022-09-07T18:56:03.554Z,6.50
2022-09-07T18:57:36.507Z,7.17
2022-09-07T18:59:09.476Z,4.73
2022-09-07T19:00:45.943Z,4.50
2022-09-07T19:02:18.986Z,5.07
2022-09-07T19:03:55.863Z,5.30
2022-09-07T19:07:20.328Z,3.37
2022-09-07T19:08:53.296Z,15.53
2022-09-07T19:10:25.028Z,9.50
2022-09-07T19:11:56.891Z,5.03
2022-09-07T19:13:28.710Z,5.03
2022-09-07T19:15:00.452Z,3.40
2022-09-07T19:16:32.752Z,11.40
2022-09-07T19:18:05.600Z,18.53
2022-09-07T19:19:38.141Z,13.03
2022-09-07T19:21:14.732Z,5.80
2022-09-07T19:22:48.655Z,6.00
2022-09-07T19:24:20.505Z,9.50
2022-09-07T19:25:54.235Z,8.90
2022-09-07T19:27:27.047Z,9.00
2022-09-07T19:29:00.411Z,10.60
2022-09-07T19:30:34.272Z,11.03
2022-09-07T19:32:07.405Z,6.93
2022-09-07T19:33:39.017Z,7.63
2022-09-07T19:35:11.263Z,7.40
2022-09-07T19:36:42.923Z,6.07
2022-09-07T19:38:14.567Z,9.43
2022-09-07T19:39:48.391Z,5.93
2022-09-07T19:41:20.246Z,3.87
2022-09-07T19:42:51.852Z,8.10
2022-09-07T19:44:23.508Z,5.13
2022-09-07T19:45:55.124Z,7.53
2022-09-07T19:47:27.174Z,8.00
2022-09-07T19:48:58.873Z,5.97
2022-09-07T19:50:32.239Z,7.87
2022-09-07T19:52:04.153Z,8.23
2022-09-07T19:53:42.664Z,4.43
2022-09-07T19:55:15.708Z,5.50
2022-09-07T19:56:47.414Z,6.13
2022-09-07T19:58:19.080Z,6.30
2022-09-07T19:59:52.953Z,9.43
2022-09-07T20:01:25.397Z,5.63
2022-09-07T20:02:57.404Z,6.97
2022-09-07T20:04:29.252Z,6.00
2022-09-07T20:06:05.411Z,9.37
2022-09-07T20:07:37.057Z,9.30
2022-09-07T20:09:08.816Z,6.10
2022-09-07T20:10:40.424Z,6.60
2022-09-07T20:12:14.280Z,5.70
2022-09-07T20:13:45.909Z,4.03
2022-09-07T20:15:17.561Z,5.03
2022-09-07T20:16:49.261Z,8.23
2022-09-07T20:18:20.929Z,12.60
2022-09-07T20:19:52.567Z,4.97
2022-09-07T20:21:25.850Z,7.30
2022-09-07T20:22:57.470Z,4.03
2022-09-07T20:24:29.213Z,16.03
2022-09-07T20:26:03.439Z,10.00
2022-09-07T20:27:38.055Z,6.13
2022-09-07T20:29:27.394Z,6.00
2022-09-07T20:31:07.968Z,5.40
2022-09-07T20:32:40.119Z,3.47
2022-09-07T20:34:11.922Z,6.23
2022-09-07T20:35:44.219Z,5.30
2022-09-07T20:37:15.931Z,5.00
2022-09-07T20:38:54.817Z,5.77
2022-09-07T20:40:26.444Z,6.00
2022-09-07T20:41:58.107Z,6.40
2022-09-07T20:43:29.840Z,4.53
2022-09-07T20:45:02.136Z,4.47
2022-09-07T20:46:34.002Z,8.10
2022-09-07T20:48:05.717Z,5.63
2022-09-07T20:49:37.526Z,4.00
2022-09-07T20:51:16.080Z,5.03
2022-09-07T20:52:50.688Z,9.23
2022-09-07T20:54:22.356Z,7.17
2022-09-07T20:56:01.984Z,11.87
2022-09-07T20:57:33.611Z,6.13
2022-09-07T20:59:05.388Z,5.90
2022-09-07T21:00:37.330Z,6.17
2022-09-07T21:02:09.947Z,6.67
2022-09-07T21:03:49.184Z,5.10
2022-09-07T21:05:21.152Z,17.63
2022-09-07T21:06:52.823Z,7.87
2022-09-07T21:08:24.483Z,5.40
2022-09-07T21:09:56.299Z,10.10
2022-09-07T21:11:31.706Z,4.23
2022-09-07T21:13:03.334Z,4.67
2022-09-07T21:14:35.464Z,6.87
2022-09-07T21:16:12.897Z,7.70
2022-09-07T21:17:44.567Z,6.27
2022-09-07T21:19:16.243Z,4.80
2022-09-07T21:21:18.513Z,7.47
2022-09-07T21:22:48.798Z,12.27
2022-09-07T21:24:22.964Z,10.20
2022-09-07T21:25:57.855Z,7.20
2022-09-07T21:27:30.178Z,6.97
2022-09-07T21:29:04.851Z,4.93
2022-09-07T21:30:36.622Z,4.97
2022-09-07T21:32:08.291Z,5.20
2022-09-07T21:33:39.936Z,6.40
2022-09-07T21:35:11.581Z,6.63
2022-09-07T21:36:43.418Z,4.97
2022-09-07T21:38:15.063Z,5.70
2022-09-07T21:39:46.730Z,7.07
2022-09-07T21:41:19.741Z,5.17
2022-09-07T21:42:52.099Z,3.90
2022-09-07T21:44:24.506Z,4.70
2022-09-07T21:45:56.287Z,9.30
2022-09-07T21:47:28.007Z,4.43
2022-09-07T21:49:00.438Z,6.13
2022-09-07T21:50:32.163Z,6.83
2022-09-07T21:52:03.774Z,6.53
2022-09-07T21:53:35.693Z,7.60
2022-09-07T21:55:07.971Z,4.40
2022-09-07T21:56:44.419Z,7.03
2022-09-07T21:58:18.080Z,5.83
2022-09-07T21:59:49.735Z,7.33
2022-09-07T22:01:22.618Z,4.03
2022-09-07T22:02:54.520Z,8.77
2022-09-07T22:04:26.374Z,4.70
2022-09-07T22:06:04.293Z,6.20
2022-09-07T22:07:35.954Z,5.30
2022-09-07T22:09:07.603Z,6.80
2022-09-07T22:10:39.231Z,8.10
2022-09-07T22:12:10.895Z,4.90
2022-09-07T22:13:43.313Z,6.37
2022-09-07T22:15:15.038Z,4.43
2022-09-07T22:16:46.699Z,7.07
2022-09-07T22:18:18.360Z,7.50
2022-09-07T22:19:50.105Z,5.73
2022-09-07T22:21:28.093Z,6.60
2022-09-07T22:23:00.159Z,6.13
2022-09-07T22:24:31.783Z,6.40
2022-09-07T22:26:03.711Z,7.40
2022-09-07T22:27:36.204Z,9.27
2022-09-07T22:29:11.044Z,4.67
2022-09-07T22:30:42.660Z,9.70
2022-09-07T22:32:14.320Z,7.43
2022-09-07T22:33:47.136Z,8.47
2022-09-07T22:35:19.657Z,9.53